Tropical Cyclones
[Index]
Main Index Home Page Stock Weather Photos Extreme Storms Discussion Storm News and Storm Chasing Reports Tropical Cyclones / Hurricanes / Typhoons Weather Data and Links Wild Fires / Bushfires Weather Observation Techniques Weather Picture Catalogue Tornado Pictures and Reports Stock Video Footage and DVDs for sale
Season 2015-2016 Tropical Cyclone URIAH Track Map
Season 2015-2016 Summaries: [BoM-AU] [JTWC-AU] [JTWC-SIO] [JTWC-SPAC] [JTWC-SH]
<<- Previous TC | BoM 2015-2016 Season | Next TC ->>

click for intensity scale information  Lat/long Grid: Show Hide

 Date Labels: Show Hide

Bureau of Meteorology Tropical Cyclone Data

Name: URIAH
Number: 991 / 201516_09

09 Feb 2016 00:00 UTC to 14 Feb 2016 12:00 UTC

    date/time    lat    long    hPa   cat  kts
2016-02-09 00   11.7    94.0   1005         20          
2016-02-09 06   11.9    94.0   1005         20          
2016-02-09 12   13.2    93.4   1011         20          
2016-02-10 00   11.6    93.9   1012         15          
2016-02-10 06   11.7    94.7   1005         15          
2016-02-10 12   11.2    93.5   1009         20          
2016-02-10 18   10.4    94.2   1003         20          
2016-02-11 00   10.5    94.8   1003         20          
2016-02-11 06   10.0    95.7   1003         25          
2016-02-12 00   10.3    97.9   1005         25          
2016-02-12 06   10.7    97.2    999         25          
2016-02-12 12   11.1    96.8    999         30          
2016-02-12 18   11.5    96.3    998         30          
2016-02-13 00   12.0    95.8    998         30          
2016-02-13 06   12.2    94.8    997         30          
2016-02-13 12   12.6    94.2    994    1    35          
2016-02-13 18   13.1    93.2    992    1    45          
2016-02-14 00   13.8    92.0    991    1    50          
2016-02-14 06   14.5    91.2    990    1    50          
2016-02-14 12   15.1    90.3    982    2    50          
Winds are 10-min average.

Tropical cyclone tracks developed by Michael Bath using data from the Bureau of Meteorology and Google Maps.


[Australian Severe Weather index] [Copyright Notice] [Email Contacts] [Search This Site] [Privacy Policy]
Document: tropical_cyclone_uriah.htm Updated: 29 June 2017